Time;durP1;ratioP1;P1;durP2;ratioP2;P2;SDS_P1;SDS_P2;PMS_P1;PMS_P2;Temp;Humidity;BMP_temperature;BMP_pressure;BME280_temperature;BME280_humidity;BME280_pressure;Samples;Min_cycle;Max_cycle;Signal;HPM_P1;HPM_P2
2022/11/01 00:02:08;;;;;;;6.68;6.18;;;;;;;13.12;100.00;100553.34;6038366;23;20629;-71
2022/11/01 00:04:34;;;;;;;7.15;6.53;;;;;;;14.17;100.00;100710.81;6060957;23;20082;-70
2022/11/01 00:07:01;;;;;;;12.07;6.72;;;;;;;14.11;100.00;100705.94;6048903;23;20025;-71
2022/11/01 00:09:27;;;;;;;6.85;6.35;;;;;;;13.80;100.00;100663.16;6049895;23;20093;-71
2022/11/01 00:11:54;;;;;;;6.75;6.10;;;;;;;14.03;100.00;100697.69;6054289;23;20560;-71
2022/11/01 00:14:20;;;;;;;6.05;5.63;;;;;;;13.87;100.00;100674.13;6063195;23;20469;-71
2022/11/01 00:16:47;;;;;;;6.22;5.78;;;;;;;13.61;100.00;100633.66;6055285;23;20032;-71
2022/11/01 00:19:14;;;;;;;8.43;6.70;;;;;;;13.93;100.00;100676.34;6061504;23;20245;-71
2022/11/01 00:21:40;;;;;;;5.93;5.53;;;;;;;13.98;100.00;100690.09;6046077;23;20355;-71
2022/11/01 00:24:07;;;;;;;7.78;6.75;;;;;;;13.69;100.00;100636.63;6052533;23;20007;-71
2022/11/01 00:26:34;;;;;;;6.38;5.90;;;;;;;13.96;100.00;100678.81;6057219;23;20076;-71
2022/11/01 00:29:00;;;;;;;13.95;6.43;;;;;;;13.95;100.00;100680.59;6044747;23;20101;-71
2022/11/01 00:31:27;;;;;;;6.85;6.35;;;;;;;13.94;100.00;100678.91;6060863;23;20093;-71
2022/11/01 00:33:54;;;;;;;7.35;6.50;;;;;;;13.93;100.00;100671.94;6064442;23;20014;-71
2022/11/01 00:36:20;;;;;;;16.77;7.55;;;;;;;13.93;100.00;100673.72;6041303;23;20027;-71
2022/11/01 00:38:51;;;;;;;8.73;5.88;;;;;;;13.81;100.00;100662.22;6046954;23;20477;-71
2022/11/01 00:41:19;;;;;;;8.23;6.70;;;;;;;13.66;100.00;100634.22;6023249;23;20611;-70
2022/11/01 00:43:46;;;;;;;7.00;6.40;;;;;;;13.70;100.00;100636.53;6068703;23;20614;-71
2022/11/01 00:46:12;;;;;;;7.05;6.45;;;;;;;13.54;100.00;100612.97;6060300;23;20033;-70
2022/11/01 00:48:39;;;;;;;9.38;6.78;;;;;;;13.83;100.00;100664.72;6065718;23;20125;-70
2022/11/01 00:51:06;;;;;;;6.72;6.10;;;;;;;12.98;100.00;100539.25;6014767;23;20014;-71
2022/11/01 00:53:32;;;;;;;6.63;6.03;;;;;;;13.56;100.00;100641.88;6050020;23;20084;-71
2022/11/01 00:56:00;;;;;;;10.48;5.93;;;;;;;13.65;100.00;100657.09;6054325;23;20022;-71
2022/11/01 00:58:27;;;;;;;6.85;6.30;;;;;;;13.69;100.00;100650.69;6065696;23;20077;-70
2022/11/01 01:00:54;;;;;;;6.03;5.63;;;;;;;13.41;100.00;100606.81;6043696;23;20274;-71
2022/11/01 01:03:21;;;;;;;11.00;6.75;;;;;;;13.63;100.00;100650.22;6047828;23;20023;-71
2022/11/01 01:05:52;;;;;;;6.47;6.03;;;;;;;13.63;100.00;100644.94;6041280;23;20035;-71
2022/11/01 01:08:19;;;;;;;6.68;6.10;;;;;;;13.64;100.00;100649.28;6048159;23;20030;-71
2022/11/01 01:10:46;;;;;;;6.25;5.85;;;;;;;13.26;100.00;100590.16;6067507;23;20079;-71
2022/11/01 01:13:13;;;;;;;6.55;6.07;;;;;;;13.69;100.00;100655.09;6059925;23;20026;-71
2022/11/01 01:15:40;;;;;;;5.93;5.53;;;;;;;13.70;100.00;100662.06;6044284;23;20010;-71
2022/11/01 01:18:07;;;;;;;7.18;6.50;;;;;;;13.72;100.00;100661.00;6063925;23;20026;-70
2022/11/01 01:20:33;;;;;;;6.20;5.70;;;;;;;13.09;100.00;100549.13;6028664;23;20355;-71
2022/11/01 01:23:00;;;;;;;6.88;6.28;;;;;;;13.50;100.00;100608.00;6060794;23;20014;-71
2022/11/01 01:25:27;;;;;;;6.35;5.90;;;;;;;13.88;100.00;100662.63;6041620;23;20077;-70
2022/11/01 01:27:54;;;;;;;7.70;6.22;;;;;;;13.61;100.00;100620.47;6056286;23;20359;-70
2022/11/01 01:30:21;;;;;;;7.18;6.57;;;;;;;13.70;100.00;100631.25;6058660;23;20527;-71
2022/11/01 01:32:47;;;;;;;6.85;6.25;;;;;;;13.96;100.00;100657.69;6051358;23;20093;-71
2022/11/01 01:35:13;;;;;;;7.85;5.95;;;;;;;13.65;100.00;100621.94;6061122;23;20034;-71
2022/11/01 01:37:43;;;;;;;8.75;6.53;;;;;;;13.93;100.00;100671.94;6044992;23;20051;-71
2022/11/01 01:40:10;;;;;;;6.65;6.07;;;;;;;13.92;100.00;100677.31;6008207;23;20022;-70
2022/11/01 01:42:41;;;;;;;10.95;6.63;;;;;;;13.88;100.00;100665.28;6014534;23;20080;-71
2022/11/01 01:45:22;;;;;;;7.55;5.82;;;;;;;13.88;100.00;100663.47;6027959;23;20046;-72
2022/11/01 01:47:51;;;;;;;7.10;6.50;;;;;;;13.87;100.00;100661.81;6037371;23;20348;-71
2022/11/01 01:50:25;;;;;;;6.28;5.68;;;;;;;13.83;100.00;100660.31;6054390;23;20019;-71
2022/11/01 01:53:00;;;;;;;9.02;6.22;;;;;;;13.55;100.00;100633.13;6063495;23;20497;-71
2022/11/01 01:55:33;;;;;;;6.18;5.68;;;;;;;13.80;100.00;100659.66;6034975;23;20092;-71
2022/11/01 01:58:03;;;;;;;6.25;5.70;;;;;;;13.76;100.00;100651.09;6063199;23;20076;-71
2022/11/01 02:00:31;;;;;;;6.17;5.57;;;;;;;13.80;100.00;100657.03;6068798;23;20149;-71
2022/11/01 02:02:58;;;;;;;6.95;5.65;;;;;;;13.59;100.00;100633.78;6065877;23;20033;-72
2022/11/01 02:05:45;;;;;;;7.15;6.22;;;;;;;13.64;100.00;100644.00;6057425;23;20210;-71
2022/11/01 02:08:13;;;;;;;6.05;5.65;;;;;;;13.33;100.00;100599.41;6048642;23;20018;-71
2022/11/01 02:10:40;;;;;;;10.43;6.25;;;;;;;13.70;100.00;100662.91;6058197;23;20024;-71
2022/11/01 02:13:11;;;;;;;6.05;5.65;;;;;;;13.66;100.00;100656.13;6068771;23;20093;-72
2022/11/01 02:15:50;;;;;;;6.00;5.45;;;;;;;13.62;100.00;100657.28;6054138;23;20081;-71
2022/11/01 02:18:34;;;;;;;6.97;6.40;;;;;;;13.52;100.00;100651.75;6046986;23;20097;-72
2022/11/01 02:21:27;;;;;;;6.18;5.65;;;;;;;13.55;100.00;100650.72;6046656;23;20168;-71
2022/11/01 02:24:17;;;;;;;6.50;6.00;;;;;;;13.41;100.00;100617.38;6057360;23;20026;-71
2022/11/01 02:27:08;;;;;;;6.55;5.80;;;;;;;13.51;100.00;100636.03;6065933;23;20097;-71
2022/11/01 02:29:57;;;;;;;8.25;5.90;;;;;;;13.08;100.00;100565.88;6023591;23;20028;-71
2022/11/01 02:32:35;;;;;;;6.95;5.50;;;;;;;13.52;100.00;100627.19;6066745;23;20025;-71
2022/11/01 02:35:13;;;;;;;5.95;5.55;;;;;;;13.49;100.00;100620.34;6052934;23;20480;-72
2022/11/01 02:37:48;;;;;;;6.63;6.00;;;;;;;13.28;100.00;100585.66;6061825;23;20034;-71
2022/11/01 02:40:27;;;;;;;11.25;6.05;;;;;;;13.34;100.00;100606.34;6022947;23;20076;-70
2022/11/01 02:43:00;;;;;;;9.30;5.75;;;;;;;13.52;100.00;100629.84;6074956;23;20595;-69
2022/11/01 02:45:41;;;;;;;7.28;5.75;;;;;;;13.52;100.00;100630.69;6060218;23;20023;-71
2022/11/01 02:48:08;;;;;;;7.68;5.55;;;;;;;13.28;100.00;100582.19;6049777;23;20023;-71
2022/11/01 02:51:00;;;;;;;6.38;5.70;;;;;;;13.52;100.00;100611.38;6071805;23;20052;-71
2022/11/01 02:53:27;;;;;;;6.65;6.13;;;;;;;13.25;100.00;100556.00;6013339;23;20027;-71
2022/11/01 02:55:53;;;;;;;6.97;6.40;;;;;;;13.26;100.00;100565.63;6018392;23;20011;-71
2022/11/01 02:58:30;;;;;;;8.82;5.53;;;;;;;13.41;100.00;100592.78;6038723;23;20051;-71
2022/11/01 03:00:57;;;;;;;5.80;5.28;;;;;;;13.38;100.00;100599.09;6029094;23;20029;-71
2022/11/01 03:03:30;;;;;;;7.55;5.38;;;;;;;12.28;100.00;100407.75;6037688;23;20187;-72
2022/11/01 03:06:12;;;;;;;5.65;5.18;;;;;;;13.38;100.00;100588.56;6035394;23;20506;-71
2022/11/01 03:08:44;;;;;;;5.80;5.30;;;;;;;13.76;100.00;100615.03;6031836;23;20242;-71
2022/11/01 03:11:15;;;;;;;5.35;5.05;;;;;;;13.83;100.00;100628.66;6011329;23;20023;-71
2022/11/01 03:13:54;;;;;;;5.85;5.05;;;;;;;13.94;100.00;100634.03;6012411;23;20469;-72
2022/11/01 03:17:06;;;;;;;5.35;5.05;;;;;;;14.10;100.00;100633.84;6017851;23;20039;-71
2022/11/01 03:19:50;;;;;;;6.25;5.22;;;;;;;14.28;100.00;100644.94;6014746;23;20102;-71
2022/11/01 03:22:39;;;;;;;5.68;5.20;;;;;;;14.36;100.00;100655.00;6038441;23;20092;-71
2022/11/01 03:28:05;;;;;;;5.53;5.18;;;;;;;14.39;100.00;100648.63;6039542;23;20034;-71
2022/11/01 03:30:34;;;;;;;7.78;5.80;;;;;;;14.50;100.00;100668.06;6038727;23;20422;-71
2022/11/01 03:33:00;;;;;;;6.25;5.68;;;;;;;14.52;100.00;100678.53;6026804;23;20019;-71
2022/11/01 03:35:32;;;;;;;5.32;4.82;;;;;;;14.58;100.00;100685.22;6042282;23;20026;-71
2022/11/01 03:38:03;;;;;;;5.60;5.20;;;;;;;14.51;100.00;100663.63;6039106;23;20022;-71
2022/11/01 03:40:33;;;;;;;5.72;5.22;;;;;;;14.60;100.00;100692.09;6031266;23;20117;-71
2022/11/01 03:43:10;;;;;;;5.65;5.25;;;;;;;14.17;100.00;100642.19;6042273;23;20027;-71
2022/11/01 03:45:38;;;;;;;5.38;5.07;;;;;;;14.54;100.00;100706.53;6033800;23;20155;-71
2022/11/01 03:48:05;;;;;;;5.95;5.55;;;;;;;14.48;100.00;100688.47;6013998;23;20015;-71
2022/11/01 03:50:32;;;;;;;5.43;5.03;;;;;;;14.02;100.00;100632.69;6045134;23;20044;-72
2022/11/01 03:52:59;;;;;;;5.22;4.93;;;;;;;14.51;100.00;100714.69;6039876;23;20473;-71
2022/11/01 03:55:25;;;;;;;5.88;5.38;;;;;;;14.32;100.00;100696.59;6030936;23;20151;-71
2022/11/01 03:57:56;;;;;;;6.38;5.88;;;;;;;14.23;100.00;100680.53;6031958;23;20021;-71
2022/11/01 04:00:27;;;;;;;5.72;5.32;;;;;;;14.16;100.00;100680.09;6036338;23;20038;-72
2022/11/01 04:02:54;;;;;;;6.88;5.15;;;;;;;14.52;100.00;100724.28;6032016;23;20383;-71
2022/11/01 04:05:24;;;;;;;5.60;5.20;;;;;;;14.42;100.00;100704.72;6005182;23;20031;-72
2022/11/01 04:07:51;;;;;;;5.47;5.13;;;;;;;13.83;100.00;100599.66;6028682;23;20023;-72
2022/11/01 04:10:18;;;;;;;5.32;5.03;;;;;;;14.46;100.00;100722.06;6032405;23;20034;-71
2022/11/01 04:12:46;;;;;;;7.88;5.50;;;;;;;14.35;100.00;100696.38;6030538;23;20011;-71
2022/11/01 04:21:24;;;;;;;5.93;5.53;;;;;;;14.56;100.00;100732.88;6029255;23;20030;-70
2022/11/01 04:23:51;;;;;;;6.55;5.20;;;;;;;14.52;100.00;100737.47;6029823;23;20984;-71
2022/11/01 04:26:22;;;;;;;5.47;5.10;;;;;;;14.40;100.00;100729.56;6027376;23;20030;-71
2022/11/01 04:28:55;;;;;;;5.65;5.28;;;;;;;14.61;100.00;100772.16;6031850;23;20416;-71
2022/11/01 04:31:26;;;;;;;5.88;5.40;;;;;;;14.58;100.00;100781.16;6031141;23;20027;-71
2022/11/01 04:33:53;;;;;;;6.80;6.30;;;;;;;14.61;100.00;100791.50;6032570;23;20088;-70
2022/11/01 04:36:19;;;;;;;6.15;5.63;;;;;;;14.45;100.00;100767.91;6022705;23;20031;-71
2022/11/01 04:38:51;;;;;;;5.82;5.43;;;;;;;14.61;100.00;100791.50;6028691;23;20031;-71
2022/11/01 04:41:18;;;;;;;9.27;5.20;;;;;;;14.31;100.00;100749.47;6002210;23;20427;-71
2022/11/01 04:43:46;;;;;;;5.78;5.38;;;;;;;14.02;100.00;100703.94;6035041;23;20335;-72
2022/11/01 04:46:12;;;;;;;6.13;5.72;;;;;;;14.63;100.00;100805.44;6026720;23;20038;-72
2022/11/01 04:48:38;;;;;;;6.00;5.50;;;;;;;14.52;100.00;100776.25;6040450;23;20023;-71
2022/11/01 04:51:05;;;;;;;5.45;5.15;;;;;;;14.53;100.00;100778.78;6031758;23;20030;-70
2022/11/01 04:53:32;;;;;;;5.88;5.32;;;;;;;14.54;100.00;100771.72;6036455;23;20027;-70
2022/11/01 04:56:01;;;;;;;5.90;5.60;;;;;;;14.68;100.00;100808.63;6033542;23;20041;-70
2022/11/01 04:58:28;;;;;;;8.88;5.50;;;;;;;14.69;100.00;100804.19;6027708;23;20015;-71
2022/11/01 05:00:54;;;;;;;5.60;5.22;;;;;;;14.67;100.00;100803.44;6027300;23;20532;-71
2022/11/01 05:03:21;;;;;;;5.57;5.25;;;;;;;14.69;100.00;100804.19;6028333;23;20085;-71
2022/11/01 05:05:47;;;;;;;5.78;5.38;;;;;;;14.43;100.00;100772.41;6030428;23;20419;-71
2022/11/01 05:08:14;;;;;;;5.95;5.55;;;;;;;14.14;100.00;100724.22;6029343;23;20126;-71
2022/11/01 05:10:43;;;;;;;5.72;5.32;;;;;;;14.29;100.00;100749.59;6028011;23;20025;-71
2022/11/01 05:13:11;;;;;;;6.13;5.65;;;;;;;14.82;100.00;100830.63;6026978;23;20216;-71
2022/11/01 05:15:37;;;;;;;5.60;5.20;;;;;;;14.59;100.00;100792.56;6017092;23;20034;-71
2022/11/01 05:18:05;;;;;;;5.50;5.10;;;;;;;14.89;100.00;100831.88;6033123;23;20035;-71
2022/11/01 05:20:32;;;;;;;6.63;5.20;;;;;;;14.64;100.00;100804.50;5974166;23;20093;-70
2022/11/01 05:23:00;;;;;;;6.05;5.47;;;;;;;14.90;100.00;100849.44;6010885;23;20018;-71
2022/11/01 05:25:28;;;;;;;5.82;5.32;;;;;;;14.53;100.00;100793.78;6033159;23;20082;-71
2022/11/01 05:28:01;;;;;;;6.15;5.65;;;;;;;14.05;100.00;100738.03;6031350;23;20126;-70
2022/11/01 05:30:30;;;;;;;6.05;5.47;;;;;;;14.91;100.00;100865.22;6037814;23;20027;-71
2022/11/01 05:32:59;;;;;;;6.43;5.82;;;;;;;14.92;100.00;100880.09;6025556;23;20031;-72
2022/11/01 05:35:27;;;;;;;5.50;5.20;;;;;;;15.04;100.00;100888.16;6047061;23;20035;-72
2022/11/01 05:37:54;;;;;;;6.07;5.68;;;;;;;15.05;100.00;100892.47;6026530;23;20011;-72
2022/11/01 05:40:22;;;;;;;5.60;5.30;;;;;;;14.90;100.00;100887.28;6031727;23;20103;-72
2022/11/01 05:42:49;;;;;;;8.05;5.50;;;;;;;15.04;100.00;100914.59;6009997;23;20438;-72
2022/11/01 05:45:16;;;;;;;5.43;5.10;;;;;;;15.02;100.00;100912.03;6032668;23;20092;-72
2022/11/01 05:47:42;;;;;;;5.10;4.90;;;;;;;15.10;100.00;100940.59;6041935;23;20177;-70
2022/11/01 05:50:14;;;;;;;5.90;5.50;;;;;;;14.64;100.00;100870.53;6010617;23;20038;-72
2022/11/01 05:52:42;;;;;;;5.20;4.90;;;;;;;14.77;100.00;100894.34;6044261;23;20422;-74
2022/11/01 05:55:09;;;;;;;5.15;4.78;;;;;;;15.14;98.72;100958.78;6066787;23;20242;-71
2022/11/01 05:57:35;;;;;;;5.38;4.97;;;;;;;15.02;98.24;100959.63;6062112;23;20096;-72
2022/11/01 06:00:04;;;;;;;5.10;4.85;;;;;;;15.16;95.34;100972.75;6039017;23;20550;-72
2022/11/01 06:02:32;;;;;;;4.93;4.70;;;;;;;14.70;93.98;100916.84;6061720;23;20487;-72
2022/11/01 06:05:05;;;;;;;4.82;4.63;;;;;;;15.05;91.99;100982.34;5944796;23;20036;-72
2022/11/01 06:07:33;;;;;;;;;;;;;;;15.11;90.33;100989.88;6062856;23;20022;-71
2022/11/01 06:10:07;;;;;;;4.70;4.50;;;;;;;15.11;89.30;101011.88;6012051;23;19922;-71
2022/11/01 06:12:34;;;;;;;5.00;4.68;;;;;;;14.99;90.49;101004.75;6066037;23;20479;-72
2022/11/01 06:15:00;;;;;;;5.15;4.85;;;;;;;14.32;91.00;100923.63;6087155;23;20161;-71
2022/11/01 06:17:27;;;;;;;5.65;4.70;;;;;;;14.89;91.99;101015.09;6070748;23;20026;-72
2022/11/01 06:19:54;;;;;;;5.20;4.90;;;;;;;14.93;90.79;101024.53;6080835;23;20433;-71
2022/11/01 06:22:20;;;;;;;4.85;4.57;;;;;;;14.46;89.69;100959.72;6072391;23;20316;-72
2022/11/01 06:24:47;;;;;;;5.25;4.72;;;;;;;14.79;89.15;101007.84;6064018;23;20036;-72
2022/11/01 06:27:13;;;;;;;4.72;4.53;;;;;;;14.30;89.54;100940.53;6066598;23;20089;-72
2022/11/01 06:29:40;;;;;;;5.43;5.10;;;;;;;14.80;91.75;101038.63;6062779;23;20080;-72
2022/11/01 06:32:06;;;;;;;5.28;4.97;;;;;;;14.23;93.80;100974.41;6069322;23;20089;-70
2022/11/01 06:34:33;;;;;;;4.57;4.38;;;;;;;14.64;94.32;101057.25;6063578;23;20364;-70
2022/11/01 06:37:01;;;;;;;4.80;4.60;;;;;;;14.41;94.96;101048.09;6059123;23;20089;-69
2022/11/01 06:39:27;;;;;;;4.97;4.72;;;;;;;14.34;96.34;101080.16;6058764;23;20010;-69
2022/11/01 06:41:53;;;;;;;7.05;4.90;;;;;;;13.87;96.47;101015.31;6062964;23;20625;-69
2022/11/01 06:44:21;;;;;;;4.82;4.50;;;;;;;13.87;96.89;101048.75;6060694;23;20021;-70
2022/11/01 06:46:47;;;;;;;4.63;4.43;;;;;;;13.96;97.83;101077.22;6062110;23;20138;-69
2022/11/01 06:49:13;;;;;;;5.07;4.82;;;;;;;13.74;98.35;101075.03;6060010;23;20031;-69
2022/11/01 06:51:44;;;;;;;4.53;4.32;;;;;;;13.46;99.24;101046.78;6048287;23;20022;-70
2022/11/01 06:54:11;;;;;;;5.28;4.93;;;;;;;13.62;99.43;101108.25;6022431;23;20453;-70
2022/11/01 06:56:37;;;;;;;9.35;5.10;;;;;;;13.51;100.00;101106.25;6051555;23;20030;-69
2022/11/01 06:59:04;;;;;;;4.80;4.60;;;;;;;13.26;100.00;101074.28;6039872;23;20352;-70
2022/11/01 07:01:31;;;;;;;4.97;4.68;;;;;;;13.46;100.00;101133.81;6065444;23;20018;-70
2022/11/01 07:03:58;;;;;;;11.23;4.68;;;;;;;13.42;100.00;101138.41;6060837;23;20006;-70
2022/11/01 07:06:27;;;;;;;5.05;4.78;;;;;;;13.38;100.00;101139.50;6049457;23;20422;-70
2022/11/01 07:08:54;;;;;;;5.07;4.57;;;;;;;13.30;98.99;101139.09;6045618;23;20029;-70
2022/11/01 07:11:21;;;;;;;7.47;5.18;;;;;;;13.30;97.72;101144.38;6037852;23;20014;-69
2022/11/01 07:13:52;;;;;;;5.07;4.78;;;;;;;13.37;96.22;101177.38;6023745;23;20038;-70
2022/11/01 07:16:19;;;;;;;5.03;4.72;;;;;;;13.30;96.54;101197.09;6054278;23;20535;-70
2022/11/01 07:18:45;;;;;;;5.28;4.60;;;;;;;13.25;96.15;101180.63;6047101;23;20023;-70
2022/11/01 07:21:12;;;;;;;4.60;4.40;;;;;;;13.18;95.42;101190.66;6040357;23;20081;-71
2022/11/01 07:23:38;;;;;;;4.78;4.47;;;;;;;13.18;95.27;101191.50;6040288;23;20029;-70
2022/11/01 07:26:05;;;;;;;4.70;4.50;;;;;;;12.90;95.19;101188.69;6014644;23;20188;-70
2022/11/01 07:28:31;;;;;;;5.30;4.80;;;;;;;13.03;93.36;101204.69;6052153;23;20042;-71
2022/11/01 07:30:58;;;;;;;4.57;4.38;;;;;;;13.11;91.51;101208.63;6017932;23;20042;-71
2022/11/01 07:33:25;;;;;;;6.10;4.70;;;;;;;13.20;88.47;101222.22;6034696;23;20027;-71
2022/11/01 07:35:51;;;;;;;4.90;4.70;;;;;;;13.19;87.40;101216.09;6043319;23;20035;-71
2022/11/01 07:38:18;;;;;;;6.65;6.25;;;;;;;12.69;85.20;101132.75;6054457;23;20649;-71
2022/11/01 07:40:48;;;;;;;4.45;4.25;;;;;;;12.70;85.16;101159.00;6057033;23;20501;-71
2022/11/01 07:43:16;;;;;;;4.80;4.60;;;;;;;13.14;84.66;101229.50;6012742;23;20042;-70
2022/11/01 07:45:43;;;;;;;5.00;4.53;;;;;;;12.91;84.80;101195.66;6043463;23;20061;-70
2022/11/01 07:48:13;;;;;;;4.85;4.63;;;;;;;12.95;84.02;101197.22;6039463;23;20022;-70
2022/11/01 07:50:41;;;;;;;4.57;4.38;;;;;;;13.02;81.36;101201.19;6037874;23;20022;-70
2022/11/01 07:53:11;;;;;;;4.53;4.32;;;;;;;13.28;78.83;101231.41;6032642;23;20084;-69
2022/11/01 07:55:38;;;;;;;4.70;4.50;;;;;;;13.25;77.20;101228.94;6033638;23;20481;-70
2022/11/01 07:58:06;;;;;;;5.25;4.82;;;;;;;13.14;76.92;101186.50;6030026;23;20057;-69
2022/11/01 08:00:33;;;;;;;5.63;4.80;;;;;;;13.39;76.22;101240.53;6032906;23;20234;-70
2022/11/01 08:03:01;;;;;;;4.35;4.15;;;;;;;13.17;75.39;101176.66;6033861;23;20010;-70
2022/11/01 08:05:30;;;;;;;5.00;4.80;;;;;;;13.40;74.24;101208.81;6037143;23;20484;-71
2022/11/01 08:07:57;;;;;;;4.57;4.38;;;;;;;13.46;75.47;101240.09;6030290;23;20404;-70
2022/11/01 08:10:25;;;;;;;5.07;4.60;;;;;;;12.43;74.99;101060.44;6030360;23;20054;-70
2022/11/01 08:13:01;;;;;;;4.78;4.40;;;;;;;13.50;73.85;101227.63;6007303;23;20029;-70
2022/11/01 08:15:28;;;;;;;4.78;4.55;;;;;;;13.50;72.40;101203.88;6027511;23;20026;-70
2022/11/01 08:17:56;;;;;;;4.82;4.60;;;;;;;13.42;72.11;101174.47;6016795;23;20011;-70
2022/11/01 08:20:24;;;;;;;4.70;4.40;;;;;;;13.57;69.69;101177.09;6024077;23;20089;-70
2022/11/01 08:22:51;;;;;;;6.35;5.05;;;;;;;13.62;70.21;101170.69;6000707;23;20050;-70
2022/11/01 08:25:18;;;;;;;5.32;4.82;;;;;;;13.64;71.12;101192.56;6013800;23;20048;-70
2022/11/01 08:27:45;;;;;;;5.28;4.88;;;;;;;13.66;70.53;101174.84;6025264;23;20027;-70
2022/11/01 08:30:13;;;;;;;5.30;5.00;;;;;;;13.57;71.48;101169.16;6025676;23;20010;-69
2022/11/01 08:32:44;;;;;;;4.53;4.32;;;;;;;13.73;71.39;101184.97;6034446;23;20023;-69
2022/11/01 08:35:13;;;;;;;4.95;4.65;;;;;;;13.79;69.97;101185.53;6033252;23;20029;-69
2022/11/01 08:37:50;;;;;;;4.60;4.40;;;;;;;13.79;69.88;101189.03;6031808;23;20018;-69
2022/11/01 08:40:17;;;;;;;4.90;4.47;;;;;;;13.86;69.48;101189.53;6037304;23;20339;-69
2022/11/01 08:42:44;;;;;;;4.75;4.55;;;;;;;13.88;69.71;101177.94;6020022;23;20026;-70
2022/11/01 08:45:11;;;;;;;4.80;4.60;;;;;;;13.95;69.54;101188.97;6048803;23;20038;-70
2022/11/01 08:47:38;;;;;;;5.03;4.60;;;;;;;13.70;69.33;101144.72;6030060;23;20492;-70
2022/11/01 08:50:06;;;;;;;5.10;4.80;;;;;;;14.08;69.99;101207.59;6036149;23;20053;-70
2022/11/01 08:52:36;;;;;;;4.70;4.40;;;;;;;14.14;69.67;101199.31;6036863;23;20493;-70
2022/11/01 08:55:03;;;;;;;5.05;4.82;;;;;;;14.21;68.49;101202.44;6059684;23;20030;-70
2022/11/01 08:57:30;;;;;;;11.45;4.60;;;;;;;14.30;69.53;101220.38;6064177;23;20327;-70
2022/11/01 08:59:56;;;;;;;4.97;4.68;;;;;;;14.29;68.40;101210.75;6032645;23;20114;-68
2022/11/01 09:02:23;;;;;;;10.20;4.70;;;;;;;14.34;69.19;101217.44;6060945;23;20081;-70
2022/11/01 09:04:49;;;;;;;7.68;4.82;;;;;;;14.46;69.11;101229.06;6034380;23;20014;-68
2022/11/01 09:07:16;;;;;;;4.95;4.65;;;;;;;13.98;67.41;101119.34;6062117;23;20030;-69
2022/11/01 09:09:42;;;;;;;4.97;4.68;;;;;;;14.54;68.38;101218.91;6059480;23;20090;-69
2022/11/01 09:12:09;;;;;;;4.75;4.50;;;;;;;14.12;67.58;101143.13;6059203;23;20078;-70
2022/11/01 09:14:40;;;;;;;4.80;4.38;;;;;;;14.36;68.56;101175.13;6062283;23;20763;-70
2022/11/01 09:17:07;;;;;;;5.63;4.50;;;;;;;14.70;68.33;101221.50;6063862;23;20022;-70
2022/11/01 09:19:33;;;;;;;5.85;4.40;;;;;;;14.74;67.60;101207.16;6071173;23;20034;-70
2022/11/01 09:22:00;;;;;;;5.18;4.82;;;;;;;14.57;67.48;101170.34;6063912;23;20461;-70
2022/11/01 09:24:26;;;;;;;5.45;4.88;;;;;;;14.85;68.48;101210.91;6062798;23;20109;-71
2022/11/01 09:26:52;;;;;;;9.50;4.72;;;;;;;14.95;67.31;101206.75;6036914;23;20022;-70
2022/11/01 09:29:20;;;;;;;4.78;4.57;;;;;;;15.01;66.91;101206.38;6062225;23;20033;-70
2022/11/01 09:31:50;;;;;;;4.88;4.53;;;;;;;14.91;66.69;101197.31;6058082;23;20046;-71
2022/11/01 09:34:16;;;;;;;8.75;4.63;;;;;;;15.11;67.04;101228.66;6062683;23;20088;-70
2022/11/01 09:36:43;;;;;;;4.15;3.95;;;;;;;14.93;66.77;101182.22;6061136;23;20636;-69
2022/11/01 09:39:10;;;;;;;4.40;4.20;;;;;;;14.71;65.69;101119.28;6085288;23;20084;-69
2022/11/01 09:41:46;;;;;;;4.53;4.30;;;;;;;15.27;64.11;101180.91;6054783;23;20512;-68
2022/11/01 09:44:24;;;;;;;5.95;5.45;;;;;;;15.32;64.51;101197.34;6072774;23;20066;-68
2022/11/01 09:47:03;;;;;;;4.57;4.38;;;;;;;15.26;64.38;101170.47;6063597;23;20014;-71
2022/11/01 09:49:35;;;;;;;4.32;4.13;;;;;;;15.62;63.68;101190.19;6063220;23;20603;-70
2022/11/01 09:52:03;;;;;;;5.00;4.60;;;;;;;15.61;62.73;101164.66;6067890;23;20083;-71
2022/11/01 09:54:30;;;;;;;4.45;4.20;;;;;;;15.38;62.23;101113.28;6065242;23;20210;-73
2022/11/01 09:57:16;;;;;;;6.78;4.85;;;;;;;15.87;62.72;101181.47;6041565;23;20231;-71
2022/11/01 09:59:58;;;;;;;5.03;4.60;;;;;;;15.89;62.15;101164.53;6062221;23;20030;-71
2022/11/01 10:02:50;;;;;;;4.88;4.45;;;;;;;15.91;61.84;101160.00;6072557;23;20029;-71
2022/11/01 10:05:43;;;;;;;4.80;4.50;;;;;;;15.91;60.72;101138.81;6067446;23;20555;-71
2022/11/01 10:08:21;;;;;;;4.90;4.68;;;;;;;16.06;60.46;101152.00;6065460;23;20539;-72
2022/11/01 10:11:13;;;;;;;4.78;4.45;;;;;;;16.06;59.72;101120.22;6061136;23;20019;-72
2022/11/01 10:14:04;;;;;;;5.93;4.57;;;;;;;15.95;60.57;101137.66;6067643;23;20429;-70
2022/11/01 10:16:40;;;;;;;4.80;4.55;;;;;;;16.15;59.99;101146.03;6064706;23;20034;-70
2022/11/01 10:19:13;;;;;;;5.20;4.90;;;;;;;16.25;58.90;101125.91;6070911;23;20022;-73
2022/11/01 10:21:53;;;;;;;4.90;4.50;;;;;;;16.20;59.88;101137.81;6088006;23;20026;-72
2022/11/01 10:24:27;;;;;;;6.60;5.10;;;;;;;16.22;59.40;101093.53;6062516;23;20552;-72
2022/11/01 10:27:01;;;;;;;5.03;4.75;;;;;;;16.60;59.57;101150.91;6057929;23;20006;-70
2022/11/01 10:29:46;;;;;;;5.25;4.95;;;;;;;16.34;59.24;101088.22;6027344;23;20022;-71
2022/11/01 10:32:32;;;;;;;5.20;4.90;;;;;;;16.64;58.10;101102.06;6060680;23;20538;-70
2022/11/01 10:35:05;;;;;;;4.70;4.45;;;;;;;16.70;58.17;101126.31;6062443;23;20645;-69
2022/11/01 10:37:40;;;;;;;5.30;4.90;;;;;;;16.54;57.75;101085.97;6063832;23;20089;-69
2022/11/01 10:40:34;;;;;;;6.43;4.82;;;;;;;16.88;58.09;101139.25;6031660;23;20449;-70
2022/11/01 10:43:04;;;;;;;4.82;4.53;;;;;;;16.71;58.87;101101.47;6058076;23;20374;-69
2022/11/01 10:45:31;;;;;;;4.90;4.50;;;;;;;17.15;57.27;101137.22;6041650;23;20047;-69
2022/11/01 10:47:57;;;;;;;4.95;4.65;;;;;;;16.54;57.34;101032.97;6039413;23;20039;-68
2022/11/01 10:50:29;;;;;;;4.78;4.57;;;;;;;16.55;57.11;101032.00;6061666;23;20089;-69
2022/11/01 10:53:00;;;;;;;5.53;5.00;;;;;;;16.81;56.91;101076.97;6059165;23;20018;-70
2022/11/01 10:55:45;;;;;;;5.30;4.65;;;;;;;17.07;57.38;101118.38;6057964;23;20122;-70
2022/11/01 10:58:23;;;;;;;5.10;4.80;;;;;;;17.06;56.99;101108.75;6060741;23;20524;-69
2022/11/01 11:00:51;;;;;;;5.13;4.82;;;;;;;17.24;56.91;101108.34;6058113;23;20034;-70
2022/11/01 11:03:22;;;;;;;7.07;5.32;;;;;;;17.23;57.00;101101.34;6066472;23;20778;-71
2022/11/01 11:05:51;;;;;;;5.47;5.07;;;;;;;17.21;57.16;101120.03;6058621;23;20092;-70
2022/11/01 11:08:25;;;;;;;5.82;5.20;;;;;;;17.24;56.80;101081.81;6033178;23;20034;-70
2022/11/01 11:10:56;;;;;;;6.80;5.20;;;;;;;16.80;57.05;101052.28;6060102;23;20187;-70
2022/11/01 11:13:25;;;;;;;5.28;4.97;;;;;;;17.01;56.42;101081.69;6059831;23;20528;-70
2022/11/01 11:16:03;;;;;;;6.70;4.80;;;;;;;17.02;56.96;101083.41;6061860;23;20038;-69
2022/11/01 11:18:32;;;;;;;4.95;4.65;;;;;;;17.01;57.28;101097.63;6060470;23;20537;-68
2022/11/01 11:21:03;;;;;;;5.35;4.88;;;;;;;17.11;56.99;101095.97;6061537;23;21197;-70
2022/11/01 11:23:36;;;;;;;5.70;4.85;;;;;;;17.24;57.31;101105.69;6063332;23;20461;-71
2022/11/01 11:26:06;;;;;;;5.38;4.90;;;;;;;17.38;55.93;101071.03;6060629;23;20126;-71
2022/11/01 11:28:42;;;;;;;9.52;4.80;;;;;;;17.21;56.32;101044.91;6039096;23;20022;-70
2022/11/01 11:31:30;;;;;;;4.88;4.68;;;;;;;17.76;55.77;101096.50;6055517;23;20037;-72
2022/11/01 11:34:24;;;;;;;5.30;4.90;;;;;;;17.83;54.74;101079.16;6062288;23;20048;-71
2022/11/01 11:36:53;;;;;;;5.13;4.88;;;;;;;17.74;55.54;101080.66;6059400;23;20406;-70
2022/11/01 11:39:58;;;;;;;4.82;4.50;;;;;;;17.99;55.65;101112.50;6056155;23;20030;-71
2022/11/01 11:42:25;;;;;;;5.60;5.10;;;;;;;17.84;55.24;101074.66;6034116;23;20025;-70
2022/11/01 11:45:26;;;;;;;7.38;4.97;;;;;;;18.00;55.04;101077.88;6059881;23;20030;-71
2022/11/01 11:47:54;;;;;;;5.00;4.80;;;;;;;17.74;54.49;101045.31;6065672;23;20018;-70